createdAt,value
2022-08-05T00:00:51.559Z,7.93
2022-08-05T00:03:53.796Z,8.77
2022-08-05T00:06:59.402Z,9.97
2022-08-05T00:10:01.515Z,7.17
2022-08-05T00:13:03.653Z,8.33
2022-08-05T00:16:05.981Z,8.07
2022-08-05T00:19:10.681Z,4.90
2022-08-05T00:22:12.980Z,5.93
2022-08-05T00:25:15.123Z,5.43
2022-08-05T00:28:21.137Z,7.90
2022-08-05T00:31:54.331Z,7.33
2022-08-05T00:35:06.276Z,5.57
2022-08-05T00:38:09.566Z,7.20
2022-08-05T00:41:12.088Z,6.60
2022-08-05T00:44:14.245Z,5.60
2022-08-05T00:47:16.483Z,6.00
2022-08-05T00:50:20.884Z,6.17
2022-08-05T00:53:44.930Z,6.57
2022-08-05T00:56:51.717Z,6.47
2022-08-05T00:59:54.033Z,6.47
2022-08-05T01:02:56.807Z,6.53
2022-08-05T01:05:59.265Z,8.10
2022-08-05T01:09:03.074Z,7.67
2022-08-05T01:12:17.927Z,8.47
2022-08-05T01:15:36.264Z,6.83
2022-08-05T01:18:41.440Z,7.60
2022-08-05T01:22:02.449Z,7.67
2022-08-05T01:25:22.239Z,7.33
2022-08-05T01:28:24.497Z,8.40
2022-08-05T01:31:26.613Z,9.23
2022-08-05T01:34:33.113Z,7.90
2022-08-05T01:37:44.318Z,8.67
2022-08-05T01:40:47.153Z,9.37
2022-08-05T01:43:52.370Z,8.53
2022-08-05T01:46:55.149Z,9.27
2022-08-05T01:50:01.390Z,7.63
2022-08-05T01:53:07.578Z,8.87
2022-08-05T01:56:11.402Z,9.33
2022-08-05T01:59:16.666Z,10.07
2022-08-05T02:02:26.108Z,7.43
2022-08-05T02:05:34.366Z,9.23
2022-08-05T02:08:55.217Z,9.73
2022-08-05T02:12:12.369Z,6.70
2022-08-05T02:15:22.865Z,6.97
2022-08-05T02:18:34.806Z,8.20
2022-08-05T02:21:46.937Z,8.47
2022-08-05T02:24:53.936Z,7.93
2022-08-05T02:27:58.353Z,6.73
2022-08-05T02:31:07.926Z,5.53
2022-08-05T02:34:18.118Z,5.73
2022-08-05T02:37:21.579Z,6.57
2022-08-05T02:40:26.045Z,7.03
2022-08-05T02:43:34.457Z,7.67
2022-08-05T02:46:53.842Z,9.10
2022-08-05T02:50:01.741Z,7.87
2022-08-05T02:53:04.663Z,10.10
2022-08-05T02:56:09.052Z,7.93
2022-08-05T02:59:12.431Z,6.00
2022-08-05T03:02:40.443Z,8.17
2022-08-05T03:06:53.943Z,8.10
2022-08-05T03:09:17.900Z,7.13
2022-08-05T03:12:38.104Z,7.83
2022-08-05T03:15:43.021Z,7.10
2022-08-05T03:18:44.905Z,7.77
2022-08-05T03:21:50.390Z,8.37
2022-08-05T03:24:53.075Z,7.33
2022-08-05T03:27:59.863Z,8.50
2022-08-05T03:31:03.584Z,7.87
2022-08-05T03:34:05.916Z,7.63
2022-08-05T03:37:07.672Z,8.93
2022-08-05T03:40:11.846Z,7.90
2022-08-05T03:43:59.219Z,6.63
2022-08-05T03:46:35.874Z,6.60
2022-08-05T03:49:51.944Z,6.73
2022-08-05T03:55:51.170Z,6.67
2022-08-05T03:56:41.319Z,7.67
2022-08-05T03:59:54.719Z,5.00
2022-08-05T04:03:01.308Z,5.07
2022-08-05T04:06:05.045Z,9.27
2022-08-05T04:09:11.542Z,8.13
2022-08-05T04:12:24.383Z,10.00
2022-08-05T04:15:27.904Z,9.50
2022-08-05T04:18:35.215Z,9.97
2022-08-05T04:22:05.051Z,9.43
2022-08-05T04:24:58.560Z,9.87
2022-08-05T04:28:05.772Z,7.90
2022-08-05T04:31:14.633Z,10.93
2022-08-05T04:34:32.561Z,13.80
2022-08-05T04:38:01.156Z,9.10
2022-08-05T04:40:57.405Z,11.60
2022-08-05T04:44:00.396Z,9.87
2022-08-05T04:47:12.080Z,12.93
2022-08-05T04:50:37.240Z,11.03
2022-08-05T04:53:40.973Z,10.53
2022-08-05T04:56:43.814Z,9.27
2022-08-05T04:59:48.178Z,10.00
2022-08-05T05:02:50.365Z,7.90
2022-08-05T05:06:35.807Z,8.90
2022-08-05T05:09:17.209Z,6.43
2022-08-05T05:12:19.480Z,8.47
2022-08-05T05:15:56.840Z,8.30
2022-08-05T05:19:02.554Z,6.57
2022-08-05T05:22:06.275Z,7.43
2022-08-05T05:25:32.665Z,6.53
2022-08-05T05:28:42.821Z,7.33
2022-08-05T05:31:46.737Z,9.00
2022-08-05T05:34:48.435Z,7.93
2022-08-05T05:38:00.155Z,6.63
2022-08-05T05:41:03.301Z,6.57
2022-08-05T05:44:37.006Z,6.03
2022-08-05T05:48:06.831Z,6.63
2022-08-05T05:50:53.039Z,7.53
2022-08-05T05:53:58.123Z,7.47
2022-08-05T05:57:00.908Z,8.83
2022-08-05T06:00:03.513Z,10.07
2022-08-05T06:03:40.672Z,8.67
2022-08-05T06:06:31.381Z,9.30
2022-08-05T06:10:00.535Z,8.47
2022-08-05T06:12:58.003Z,8.20
2022-08-05T06:16:28.783Z,8.13
2022-08-05T06:19:34.050Z,7.37
2022-08-05T06:22:37.259Z,9.83
2022-08-05T06:26:12.661Z,7.87
2022-08-05T06:29:07.005Z,10.00
2022-08-05T06:32:28.823Z,9.97
2022-08-05T06:36:03.519Z,9.60
2022-08-05T06:38:54.650Z,9.03
2022-08-05T06:41:58.896Z,8.40
2022-08-05T06:45:05.618Z,8.37
2022-08-05T06:48:36.175Z,6.73
2022-08-05T06:51:32.267Z,7.27
2022-08-05T06:54:33.954Z,7.03
2022-08-05T06:57:57.227Z,6.27
2022-08-05T07:01:00.866Z,6.70
2022-08-05T07:04:03.169Z,7.80
2022-08-05T07:07:07.922Z,5.53
2022-08-05T07:10:10.336Z,7.03
2022-08-05T07:13:58.014Z,5.37
2022-08-05T07:18:02.125Z,6.97
2022-08-05T07:20:38.932Z,5.33
2022-08-05T07:23:49.898Z,5.23
2022-08-05T07:26:54.119Z,5.30
2022-08-05T07:30:24.046Z,6.47
2022-08-05T07:33:21.408Z,8.00
2022-08-05T07:36:38.254Z,6.93
2022-08-05T07:40:04.383Z,6.53
2022-08-05T07:43:04.879Z,6.17
2022-08-05T07:46:24.566Z,7.27
2022-08-05T07:49:27.250Z,7.53
2022-08-05T07:52:46.632Z,6.93
2022-08-05T07:56:06.572Z,7.57
2022-08-05T07:59:11.188Z,7.53
2022-08-05T08:02:17.647Z,6.53
2022-08-05T08:05:20.919Z,7.00
2022-08-05T08:08:22.665Z,6.97
2022-08-05T08:11:49.519Z,6.43
2022-08-05T08:14:50.575Z,7.23
2022-08-05T08:17:52.545Z,8.57
2022-08-05T08:21:03.019Z,7.40
2022-08-05T08:24:09.497Z,8.17
2022-08-05T08:27:16.632Z,7.20
2022-08-05T08:30:32.528Z,8.13
2022-08-05T08:33:38.582Z,7.03
2022-08-05T08:36:52.377Z,6.57
2022-08-05T08:39:57.679Z,7.10
2022-08-05T08:45:19.964Z,7.37
2022-08-05T08:46:23.590Z,6.70
2022-08-05T08:50:07.615Z,6.50
2022-08-05T08:52:53.644Z,7.23
2022-08-05T08:56:03.864Z,9.43
2022-08-05T08:59:19.515Z,6.13
2022-08-05T09:02:26.553Z,6.80
2022-08-05T09:05:38.509Z,6.20
2022-08-05T09:08:50.403Z,5.13
2022-08-05T09:11:55.276Z,5.90
2022-08-05T09:15:05.798Z,7.40
2022-08-05T09:18:09.704Z,5.67
2022-08-05T09:21:21.213Z,6.87
2022-08-05T09:24:40.049Z,5.03
2022-08-05T09:28:05.676Z,7.17
2022-08-05T09:31:44.251Z,5.63
2022-08-05T09:34:56.172Z,6.03
2022-08-05T09:38:16.488Z,6.13
2022-08-05T09:41:19.589Z,8.40
2022-08-05T09:44:40.897Z,7.20
2022-08-05T09:47:55.324Z,5.83
2022-08-05T09:50:59.928Z,6.20
2022-08-05T09:54:05.233Z,6.37
2022-08-05T09:57:23.294Z,6.73
2022-08-05T10:00:26.476Z,8.03
2022-08-05T10:03:56.734Z,7.83
2022-08-05T10:06:59.508Z,8.63
2022-08-05T10:10:14.379Z,7.90
2022-08-05T10:13:45.644Z,6.13
2022-08-05T10:16:52.747Z,5.80
2022-08-05T10:20:03.831Z,5.30
2022-08-05T10:23:34.504Z,5.97
2022-08-05T10:26:52.072Z,6.30
2022-08-05T10:30:41.191Z,5.23
2022-08-05T10:33:17.742Z,7.30
2022-08-05T10:36:23.747Z,8.13
2022-08-05T10:39:59.290Z,6.47
2022-08-05T10:42:56.877Z,5.63
2022-08-05T10:46:06.813Z,6.83
2022-08-05T10:49:10.458Z,5.83
2022-08-05T10:52:39.038Z,7.03
2022-08-05T10:56:21.200Z,6.10
2022-08-05T11:00:02.640Z,5.87
2022-08-05T11:03:23.668Z,6.47
2022-08-05T11:06:30.767Z,7.73
2022-08-05T11:09:46.655Z,6.27
2022-08-05T11:12:54.279Z,5.77
2022-08-05T11:16:17.555Z,5.70
2022-08-05T11:20:10.721Z,5.80
2022-08-05T11:22:53.664Z,6.80
2022-08-05T11:26:28.904Z,5.30
2022-08-05T11:29:40.832Z,5.53
2022-08-05T11:32:42.895Z,5.60
2022-08-05T11:36:07.576Z,5.97
2022-08-05T11:39:14.658Z,6.63
2022-08-05T11:42:18.236Z,6.17
2022-08-05T11:45:30.495Z,5.93
2022-08-05T11:48:42.855Z,5.20
2022-08-05T11:51:49.452Z,8.23
2022-08-05T11:54:55.023Z,4.33
2022-08-05T11:58:09.587Z,5.07
2022-08-05T12:01:14.774Z,3.20
2022-08-05T12:04:21.739Z,3.13
2022-08-05T12:08:03.454Z,5.93
2022-08-05T12:10:48.785Z,4.03
2022-08-05T12:13:59.522Z,4.83
2022-08-05T12:18:03.342Z,6.63
2022-08-05T12:20:38.621Z,10.13
2022-08-05T12:23:43.077Z,10.37
2022-08-05T12:26:47.647Z,12.33
2022-08-05T12:30:00.292Z,14.10
2022-08-05T12:33:27.344Z,13.97
2022-08-05T12:36:30.082Z,14.47
2022-08-05T12:39:37.424Z,13.73
2022-08-05T12:42:41.085Z,13.23
2022-08-05T12:45:53.187Z,14.63
2022-08-05T12:49:13.416Z,11.00
2022-08-05T12:52:23.823Z,11.77
2022-08-05T12:55:32.843Z,12.30
2022-08-05T12:58:49.558Z,10.20
2022-08-05T13:02:13.543Z,10.67
2022-08-05T13:05:17.485Z,11.10
2022-08-05T13:08:22.677Z,7.77
2022-08-05T13:12:02.767Z,6.87
2022-08-05T13:15:05.528Z,9.20
2022-08-05T13:18:10.486Z,6.93
2022-08-05T13:21:12.565Z,6.57
2022-08-05T13:24:27.671Z,6.80
2022-08-05T13:27:41.124Z,6.63
2022-08-05T13:30:43.432Z,8.43
2022-08-05T13:34:21.464Z,5.80
2022-08-05T13:37:07.621Z,7.57
2022-08-05T13:40:15.012Z,5.63
2022-08-05T13:43:22.186Z,8.00
2022-08-05T13:49:47.178Z,6.87
2022-08-05T13:52:51.073Z,4.67
2022-08-05T13:55:58.835Z,4.27
2022-08-05T13:59:19.950Z,5.33
2022-08-05T14:02:26.629Z,9.93
2022-08-05T14:06:19.175Z,6.77
2022-08-05T14:08:53.863Z,4.93
2022-08-05T14:12:00.449Z,4.40
2022-08-05T14:16:06.037Z,7.50
2022-08-05T14:19:04.476Z,4.47
2022-08-05T14:22:11.665Z,7.77
2022-08-05T14:25:21.993Z,6.73
2022-08-05T14:28:26.308Z,5.80
2022-08-05T14:32:03.805Z,5.07
2022-08-05T14:34:51.359Z,5.47
2022-08-05T14:37:55.440Z,5.67
2022-08-05T14:40:57.827Z,4.60
2022-08-05T14:44:09.567Z,3.40
2022-08-05T14:47:58.516Z,7.23
2022-08-05T14:50:44.786Z,3.57
2022-08-05T14:54:26.497Z,2.50
2022-08-05T14:57:11.696Z,2.73
2022-08-05T15:00:15.872Z,3.00
2022-08-05T15:03:22.957Z,2.30
2022-08-05T15:06:28.079Z,2.57
2022-08-05T15:09:52.070Z,3.30
2022-08-05T15:13:01.220Z,4.17
2022-08-05T15:16:06.203Z,3.33
2022-08-05T15:19:14.393Z,4.17
2022-08-05T15:22:27.111Z,5.63
2022-08-05T15:25:41.042Z,2.90
2022-08-05T15:28:51.981Z,3.43
2022-08-05T15:31:54.174Z,2.77
2022-08-05T15:34:56.795Z,3.50
2022-08-05T15:38:34.854Z,4.90
2022-08-05T15:41:24.414Z,4.28
2022-08-05T15:44:30.153Z,4.13
2022-08-05T15:47:35.917Z,3.67
2022-08-05T15:50:38.178Z,4.10
2022-08-05T15:53:50.805Z,3.63
2022-08-05T15:56:53.681Z,4.40
2022-08-05T15:59:58.919Z,4.97
2022-08-05T16:03:04.731Z,4.10
2022-08-05T16:06:07.908Z,6.07
2022-08-05T16:09:13.401Z,3.97
2022-08-05T16:12:17.367Z,5.03
2022-08-05T16:15:21.989Z,4.20
2022-08-05T16:18:28.074Z,3.67
2022-08-05T16:21:58.422Z,4.10
2022-08-05T16:24:53.367Z,3.60
2022-08-05T16:28:05.511Z,5.17
2022-08-05T16:31:08.434Z,3.47
2022-08-05T16:34:12.743Z,3.30
2022-08-05T16:38:01.886Z,3.27
2022-08-05T16:40:38.916Z,3.43
2022-08-05T16:43:41.176Z,4.10
2022-08-05T16:46:55.370Z,2.90
2022-08-05T16:49:58.329Z,3.13
2022-08-05T16:53:12.347Z,7.00
2022-08-05T16:56:24.045Z,3.30
2022-08-05T16:59:27.680Z,6.27
2022-08-05T17:02:30.008Z,4.23
2022-08-05T17:05:32.777Z,3.67
2022-08-05T17:08:52.238Z,3.90
2022-08-05T17:12:00.012Z,3.87
2022-08-05T17:15:02.313Z,3.63
2022-08-05T17:18:05.020Z,4.40
2022-08-05T17:21:16.261Z,3.60
2022-08-05T17:24:30.218Z,4.63
2022-08-05T17:27:40.601Z,5.77
2022-08-05T17:30:52.185Z,3.10
2022-08-05T17:33:55.920Z,6.03
2022-08-05T17:37:00.577Z,4.23
2022-08-05T17:40:03.364Z,4.60
2022-08-05T17:43:07.744Z,5.60
2022-08-05T17:46:12.250Z,8.17
2022-08-05T17:49:15.803Z,3.90
2022-08-05T17:52:17.924Z,5.00
2022-08-05T17:55:20.051Z,10.83
2022-08-05T17:58:32.427Z,8.80
2022-08-05T18:01:49.240Z,4.07
2022-08-05T18:04:55.059Z,5.30
2022-08-05T18:07:57.336Z,8.50
2022-08-05T18:10:59.453Z,5.77
2022-08-05T18:14:07.205Z,4.63
2022-08-05T18:18:01.117Z,4.50
2022-08-05T18:20:32.602Z,10.73
2022-08-05T18:23:45.693Z,15.40
2022-08-05T18:26:49.321Z,16.10
2022-08-05T18:29:54.569Z,7.80
2022-08-05T18:33:00.137Z,5.20
2022-08-05T18:36:11.889Z,4.20
2022-08-05T18:39:42.345Z,4.03
2022-08-05T18:42:39.750Z,3.67
2022-08-05T18:45:43.853Z,9.17
2022-08-05T18:48:52.050Z,4.27
2022-08-05T18:52:13.205Z,4.63
2022-08-05T18:55:15.318Z,5.27
2022-08-05T18:58:18.509Z,4.20
2022-08-05T19:01:47.846Z,4.70
2022-08-05T19:05:01.254Z,4.40
2022-08-05T19:08:07.589Z,5.53
2022-08-05T19:11:15.716Z,3.23
2022-08-05T19:14:37.903Z,7.87
2022-08-05T19:17:59.426Z,5.33
2022-08-05T19:21:09.664Z,4.00
2022-08-05T19:24:34.461Z,3.97
2022-08-05T19:27:37.286Z,2.83
2022-08-05T19:30:43.816Z,7.33
2022-08-05T19:33:56.336Z,3.63
2022-08-05T19:36:58.885Z,4.23
2022-08-05T19:40:01.558Z,3.10
2022-08-05T19:43:05.207Z,2.70
2022-08-05T19:46:16.735Z,3.33
2022-08-05T19:49:30.068Z,3.27
2022-08-05T19:52:32.618Z,6.00
2022-08-05T19:56:13.796Z,3.00
2022-08-05T19:58:56.841Z,3.03
2022-08-05T20:02:01.313Z,3.60
2022-08-05T20:05:05.141Z,3.30
2022-08-05T20:08:11.884Z,3.20
2022-08-05T20:11:14.036Z,4.37
2022-08-05T20:14:26.763Z,3.53
2022-08-05T20:17:29.374Z,3.07
2022-08-05T20:20:37.088Z,3.10
2022-08-05T20:23:51.040Z,2.40
2022-08-05T20:26:55.283Z,3.30
2022-08-05T20:29:59.240Z,2.37
2022-08-05T20:33:02.180Z,1.80
2022-08-05T20:36:04.402Z,2.00
2022-08-05T20:39:06.547Z,2.70
2022-08-05T20:42:14.983Z,1.50
2022-08-05T20:45:23.893Z,2.50
2022-08-05T20:48:50.978Z,1.70
2022-08-05T20:51:54.126Z,2.13
2022-08-05T20:55:55.269Z,2.40
2022-08-05T20:58:18.504Z,6.67
2022-08-05T21:01:26.102Z,2.53
2022-08-05T21:04:39.680Z,1.53
2022-08-05T21:07:50.655Z,1.10
2022-08-05T21:10:54.486Z,1.33
2022-08-05T21:14:00.520Z,1.30
2022-08-05T21:17:05.403Z,2.03
2022-08-05T21:20:09.961Z,2.57
2022-08-05T21:23:12.835Z,1.53
2022-08-05T21:26:16.259Z,1.97
2022-08-05T21:29:18.464Z,2.40
2022-08-05T21:32:20.531Z,1.60
2022-08-05T21:35:30.275Z,1.30
2022-08-05T21:38:44.811Z,2.20
2022-08-05T21:41:52.400Z,2.40
2022-08-05T21:45:04.506Z,1.17
2022-08-05T21:48:08.171Z,1.23
2022-08-05T21:52:15.868Z,1.87
2022-08-05T21:54:32.826Z,2.80
2022-08-05T21:57:42.358Z,1.33
2022-08-05T22:00:50.957Z,1.20
2022-08-05T22:03:54.069Z,4.23
2022-08-05T22:06:57.091Z,2.00
2022-08-05T22:09:59.498Z,1.83
2022-08-05T22:13:08.751Z,3.13
2022-08-05T22:16:39.478Z,1.83
2022-08-05T22:20:00.103Z,2.00
2022-08-05T22:23:17.202Z,2.07
2022-08-05T22:26:42.011Z,2.90
2022-08-05T22:29:54.304Z,1.80
2022-08-05T22:32:56.493Z,2.73
2022-08-05T22:36:00.285Z,0.93
2022-08-05T22:39:04.088Z,1.50
2022-08-05T22:42:15.571Z,3.10
2022-08-05T22:45:27.712Z,2.63
2022-08-05T22:48:32.916Z,1.20
2022-08-05T22:52:06.327Z,2.37
2022-08-05T22:54:57.099Z,1.80
2022-08-05T22:57:59.199Z,2.33
2022-08-05T23:01:01.279Z,1.30
2022-08-05T23:04:03.793Z,2.13
2022-08-05T23:07:07.570Z,2.13
2022-08-05T23:10:09.892Z,1.80
2022-08-05T23:13:12.381Z,3.40
2022-08-05T23:16:14.507Z,2.03
2022-08-05T23:19:38.422Z,2.87
2022-08-05T23:22:48.727Z,1.93
2022-08-05T23:25:55.999Z,2.10
2022-08-05T23:28:58.105Z,2.20
2022-08-05T23:32:00.816Z,1.43
2022-08-05T23:35:03.042Z,1.00
2022-08-05T23:38:05.246Z,1.20
2022-08-05T23:41:14.115Z,1.63
2022-08-05T23:44:16.662Z,1.73
2022-08-05T23:47:18.780Z,1.30
2022-08-05T23:50:21.006Z,1.17
2022-08-05T23:53:23.338Z,1.13
2022-08-05T23:56:30.712Z,1.20
